Time,TemperatureF,DewpointF,PressureIn,WindDirection,WindDirectionDegrees,WindSpeedMPH,WindSpeedGustMPH,Humidity,HourlyPrecipIn,Conditions,Clouds,dailyrainin,SolarRadiationWatts/m^2,SoftwareType,DateUTC
2013-04-12 00:22:00,55.0,54.0,-100.00,SE,125,6.0,9.0,97,0.00,,,0.00,0.000000,,2013-04-12 10:22:00,
2013-04-12 00:33:00,55.0,54.0,-100.00,SE,125,6.0,9.0,97,0.00,,,0.00,0.000000,,2013-04-12 10:33:00,
2013-04-12 00:42:00,55.0,54.0,-100.00,SE,125,6.0,9.0,97,0.00,,,0.00,0.000000,,2013-04-12 10:42:00,
2013-04-12 00:52:00,55.0,54.0,-100.00,SE,125,6.0,9.0,97,0.00,,,0.00,0.000000,,2013-04-12 10:52:00,
2013-04-12 01:22:00,57.0,56.0,-100.00,ESE,112,3.0,9.0,96,0.00,,,0.00,0.000000,,2013-04-12 11:22:00,
2013-04-12 01:32:00,57.0,56.0,-100.00,ESE,112,3.0,9.0,96,0.00,,,0.00,0.000000,,2013-04-12 11:32:00,
2013-04-12 01:42:00,57.0,56.0,-100.00,ESE,112,3.0,9.0,96,0.00,,,0.00,0.000000,,2013-04-12 11:42:00,
2013-04-12 01:52:00,57.0,56.0,-100.00,ESE,112,3.0,9.0,96,0.00,,,0.00,0.000000,,2013-04-12 11:52:00,
2013-04-12 02:22:00,55.0,52.0,-100.00,ESE,111,5.0,9.0,90,0.00,,,0.00,0.000000,,2013-04-12 12:22:00,
2013-04-12 02:32:00,55.0,52.0,-100.00,ESE,111,5.0,9.0,90,0.00,,,0.00,0.000000,,2013-04-12 12:32:00,
2013-04-12 02:42:00,55.0,52.0,-100.00,ESE,111,5.0,9.0,90,0.00,,,0.00,0.000000,,2013-04-12 12:42:00,
2013-04-12 03:22:00,53.0,51.0,-100.00,ESE,114,7.0,10.0,92,0.00,,,-99.99,0.000000,,2013-04-12 13:22:00,
2013-04-12 03:32:00,53.0,51.0,-100.00,ESE,114,7.0,10.0,92,0.00,,,-99.99,0.000000,,2013-04-12 13:32:00,
2013-04-12 03:42:00,53.0,51.0,-100.00,ESE,114,7.0,10.0,92,0.00,,,-99.99,0.000000,,2013-04-12 13:42:00,
2013-04-12 03:52:00,53.0,51.0,-100.00,ESE,114,7.0,10.0,92,0.00,,,-99.99,0.000000,,2013-04-12 13:52:00,
2013-04-12 04:22:00,54.0,51.0,-100.00,ESE,119,8.0,12.0,90,0.00,,,0.00,0.000000,,2013-04-12 14:22:00,
2013-04-12 04:32:00,54.0,51.0,-100.00,ESE,119,8.0,12.0,90,0.00,,,0.00,0.000000,,2013-04-12 14:32:00,
2013-04-12 04:42:00,54.0,51.0,-100.00,ESE,119,8.0,12.0,90,0.00,,,0.00,0.000000,,2013-04-12 14:42:00,
2013-04-12 04:52:00,54.0,51.0,-100.00,ESE,119,8.0,12.0,90,0.00,,,0.00,0.000000,,2013-04-12 14:52:00,
2013-04-12 05:22:00,48.0,46.0,-100.00,East,95,8.0,14.0,93,0.00,,,-99.99,0.000000,,2013-04-12 15:22:00,
2013-04-12 05:33:00,48.0,46.0,-100.00,East,95,8.0,14.0,93,0.00,,,-99.99,0.000000,,2013-04-12 15:33:00,
2013-04-12 05:43:00,48.0,46.0,-100.00,East,95,8.0,14.0,93,0.00,,,-99.99,0.000000,,2013-04-12 15:43:00,
2013-04-12 05:52:00,48.0,46.0,-100.00,East,95,8.0,14.0,93,0.00,,,-99.99,0.000000,,2013-04-12 15:52:00,
2013-04-12 06:22:00,50.0,47.0,-100.00,SE,126,11.0,13.0,91,0.00,,,-99.99,0.000000,,2013-04-12 16:22:00,
2013-04-12 06:33:00,50.0,47.0,-100.00,SE,126,11.0,13.0,91,0.00,,,-99.99,0.000000,,2013-04-12 16:33:00,
2013-04-12 06:42:00,50.0,47.0,-100.00,SE,126,11.0,13.0,91,0.00,,,-99.99,0.000000,,2013-04-12 16:42:00,
2013-04-12 06:52:00,50.0,47.0,-100.00,SE,126,11.0,13.0,91,0.00,,,-99.99,0.000000,,2013-04-12 16:52:00,
2013-04-12 07:22:00,48.0,43.0,-100.00,ESE,122,11.0,14.0,84,0.00,,,0.00,36.000000,,2013-04-12 17:22:00,
2013-04-12 07:33:00,48.0,43.0,-100.00,ESE,122,11.0,14.0,84,0.00,,,0.00,36.000000,,2013-04-12 17:33:00,
2013-04-12 07:44:00,48.0,43.0,-100.00,ESE,122,11.0,14.0,84,0.00,,,0.00,36.000000,,2013-04-12 17:44:00,
2013-04-12 07:55:00,48.0,43.0,-100.00,ESE,122,11.0,14.0,84,0.00,,,0.00,36.000000,,2013-04-12 17:55:00,
2013-04-12 09:26:00,65.0,53.0,-100.00,NW,311,7.0,12.0,66,0.00,,,0.00,507.000000,,2013-04-12 19:26:00,
2013-04-12 09:32:00,65.0,53.0,-100.00,NW,311,7.0,12.0,66,0.00,,,0.00,507.000000,,2013-04-12 19:32:00,
2013-04-12 09:42:00,65.0,53.0,-100.00,NW,311,7.0,12.0,66,0.00,,,0.00,507.000000,,2013-04-12 19:42:00,
2013-04-12 09:52:00,65.0,53.0,-100.00,NW,311,7.0,12.0,66,0.00,,,0.00,507.000000,,2013-04-12 19:52:00,
2013-04-12 10:22:00,70.0,55.0,-100.00,NNW,336,5.0,13.0,58,0.00,,,0.00,827.000000,,2013-04-12 20:22:00,
2013-04-12 10:32:00,70.0,55.0,-100.00,NNW,336,5.0,13.0,58,0.00,,,0.00,827.000000,,2013-04-12 20:32:00,
2013-04-12 10:42:00,70.0,55.0,-100.00,NNW,336,5.0,13.0,58,0.00,,,0.00,827.000000,,2013-04-12 20:42:00,
2013-04-12 10:52:00,70.0,55.0,-100.00,NNW,336,5.0,13.0,58,0.00,,,0.00,827.000000,,2013-04-12 20:52:00,
2013-04-12 11:22:00,69.0,54.0,-100.00,NW,307,6.0,18.0,58,0.00,,,0.00,1016.000000,,2013-04-12 21:22:00,
2013-04-12 11:32:00,69.0,54.0,-100.00,NW,307,6.0,18.0,58,0.00,,,0.00,1016.000000,,2013-04-12 21:32:00,
2013-04-12 11:42:00,69.0,54.0,-100.00,NW,307,6.0,18.0,58,0.00,,,0.00,1016.000000,,2013-04-12 21:42:00,
2013-04-12 11:52:00,69.0,54.0,-100.00,NW,307,6.0,18.0,58,0.00,,,0.00,1016.000000,,2013-04-12 21:52:00,
2013-04-12 12:22:00,67.0,59.0,-100.00,WNW,303,13.0,18.0,75,0.00,,,0.00,771.000000,,2013-04-12 22:22:00,
2013-04-12 12:32:00,67.0,59.0,-100.00,WNW,303,13.0,18.0,75,0.00,,,0.00,771.000000,,2013-04-12 22:32:00,
2013-04-12 12:42:00,67.0,59.0,-100.00,WNW,303,13.0,18.0,75,0.00,,,0.00,771.000000,,2013-04-12 22:42:00,
2013-04-12 12:52:00,67.0,59.0,-100.00,WNW,303,13.0,18.0,75,0.00,,,0.00,771.000000,,2013-04-12 22:52:00,
2013-04-12 13:22:00,69.0,59.0,-100.00,WNW,287,12.0,19.0,71,0.00,,,0.00,766.000000,,2013-04-12 23:22:00,
2013-04-12 13:32:00,69.0,59.0,-100.00,WNW,287,12.0,19.0,71,0.00,,,0.00,766.000000,,2013-04-12 23:32:00,
2013-04-12 13:42:00,69.0,59.0,-100.00,WNW,287,12.0,19.0,71,0.00,,,0.00,766.000000,,2013-04-12 23:42:00,
2013-04-12 13:52:00,69.0,59.0,-100.00,WNW,287,12.0,19.0,71,0.00,,,0.00,766.000000,,2013-04-12 23:52:00,
2013-04-12 14:22:00,69.0,58.0,-100.00,NNW,336,9.0,17.0,68,0.00,,,0.00,592.000000,,2013-04-13 00:22:00,
2013-04-12 14:32:00,69.0,58.0,-100.00,NNW,336,9.0,17.0,68,0.00,,,0.00,592.000000,,2013-04-13 00:32:00,
2013-04-12 14:42:00,69.0,58.0,-100.00,NNW,336,9.0,17.0,68,0.00,,,0.00,592.000000,,2013-04-13 00:42:00,
2013-04-12 14:52:00,69.0,58.0,-100.00,NNW,336,9.0,17.0,68,0.00,,,0.00,592.000000,,2013-04-13 00:52:00,
2013-04-12 15:22:00,66.0,59.0,-100.00,NNW,341,10.0,17.0,79,0.00,,,0.00,306.000000,,2013-04-13 01:22:00,
2013-04-12 15:32:00,66.0,59.0,-100.00,NNW,341,10.0,17.0,79,0.00,,,0.00,306.000000,,2013-04-13 01:32:00,
2013-04-12 15:42:00,66.0,59.0,-100.00,NNW,341,10.0,17.0,79,0.00,,,0.00,306.000000,,2013-04-13 01:42:00,
2013-04-12 15:52:00,66.0,59.0,-100.00,NNW,341,10.0,17.0,79,0.00,,,0.00,306.000000,,2013-04-13 01:52:00,
2013-04-12 16:22:00,63.0,57.0,-100.00,WNW,296,11.0,18.0,81,0.00,,,0.00,245.000000,,2013-04-13 02:22:00,
2013-04-12 16:32:00,63.0,57.0,-100.00,WNW,296,11.0,18.0,81,0.00,,,0.00,245.000000,,2013-04-13 02:32:00,
2013-04-12 16:42:00,63.0,57.0,-100.00,WNW,296,11.0,18.0,81,0.00,,,0.00,245.000000,,2013-04-13 02:42:00,
2013-04-12 16:52:00,63.0,57.0,-100.00,WNW,296,11.0,18.0,81,0.00,,,0.00,245.000000,,2013-04-13 02:52:00,
2013-04-12 17:22:00,64.0,58.0,-100.00,NNW,338,9.0,18.0,80,0.00,,,0.00,331.000000,,2013-04-13 03:22:00,
2013-04-12 17:33:00,64.0,58.0,-100.00,NNW,338,9.0,18.0,80,0.00,,,0.00,331.000000,,2013-04-13 03:33:00,
2013-04-12 17:42:00,64.0,58.0,-100.00,NNW,338,9.0,18.0,80,0.00,,,0.00,331.000000,,2013-04-13 03:42:00,
2013-04-12 17:52:00,64.0,58.0,-100.00,NNW,338,9.0,18.0,80,0.00,,,0.00,331.000000,,2013-04-13 03:52:00,
2013-04-12 18:23:00,62.0,59.0,-100.00,NW,319,8.0,12.0,90,0.00,,,0.00,79.000000,,2013-04-13 04:23:00,
2013-04-12 18:33:00,62.0,59.0,-100.00,NW,319,8.0,12.0,90,0.00,,,0.00,79.000000,,2013-04-13 04:33:00,
2013-04-12 18:42:00,62.0,59.0,-100.00,NW,319,8.0,12.0,90,0.00,,,0.00,79.000000,,2013-04-13 04:42:00,
2013-04-12 18:53:00,62.0,59.0,-100.00,NW,319,8.0,12.0,90,0.00,,,0.00,79.000000,,2013-04-13 04:53:00,
2013-04-12 19:22:00,59.0,56.0,-100.00,NW,306,7.0,13.0,91,0.00,,,0.00,18.000000,,2013-04-13 05:22:00,
2013-04-12 19:32:00,59.0,56.0,-100.00,NW,306,7.0,13.0,91,0.00,,,0.00,18.000000,,2013-04-13 05:32:00,
2013-04-12 19:42:00,59.0,56.0,-100.00,NW,306,7.0,13.0,91,0.00,,,0.00,18.000000,,2013-04-13 05:42:00,
2013-04-12 19:52:00,59.0,56.0,-100.00,NW,306,7.0,13.0,91,0.00,,,0.00,18.000000,,2013-04-13 05:52:00,
2013-04-12 20:23:00,60.0,57.0,-100.00,NNW,333,3.0,10.0,90,0.00,,,0.00,0.000000,,2013-04-13 06:23:00,
2013-04-12 20:34:00,60.0,57.0,-100.00,NNW,333,3.0,10.0,90,0.00,,,0.00,0.000000,,2013-04-13 06:34:00,
2013-04-12 20:44:00,60.0,57.0,-100.00,NNW,333,3.0,10.0,90,0.00,,,0.00,0.000000,,2013-04-13 06:44:00,
2013-04-12 20:53:00,60.0,57.0,-100.00,NNW,333,3.0,10.0,90,0.00,,,0.00,0.000000,,2013-04-13 06:53:00,
2013-04-12 21:23:00,58.0,55.0,-100.00,North,353,2.0,4.0,89,0.00,,,0.00,0.000000,,2013-04-13 07:23:00,
2013-04-12 21:33:00,58.0,55.0,-100.00,North,353,2.0,4.0,89,0.00,,,0.00,0.000000,,2013-04-13 07:33:00,
2013-04-12 21:44:00,58.0,55.0,-100.00,North,353,2.0,4.0,89,0.00,,,0.00,0.000000,,2013-04-13 07:44:00,
2013-04-12 21:53:00,58.0,55.0,-100.00,North,353,2.0,4.0,89,0.00,,,0.00,0.000000,,2013-04-13 07:53:00,
2013-04-12 22:24:00,57.0,55.0,-100.00,SW,229,2.0,4.0,92,0.00,,,0.00,0.000000,,2013-04-13 08:24:00,
2013-04-12 22:33:00,57.0,55.0,-100.00,SW,229,2.0,4.0,92,0.00,,,0.00,0.000000,,2013-04-13 08:33:00,
2013-04-12 22:44:00,57.0,55.0,-100.00,SW,229,2.0,4.0,92,0.00,,,0.00,0.000000,,2013-04-13 08:44:00,
2013-04-12 22:53:00,57.0,55.0,-100.00,SW,229,2.0,4.0,92,0.00,,,0.00,0.000000,,2013-04-13 08:53:00,
2013-04-12 23:23:00,57.0,54.0,-100.00,ENE,62,2.0,4.0,91,0.00,,,0.00,0.000000,,2013-04-13 09:23:00,
2013-04-12 23:35:00,57.0,54.0,-100.00,ENE,62,2.0,4.0,91,0.00,,,0.00,0.000000,,2013-04-13 09:35:00,
2013-04-12 23:46:00,57.0,54.0,-100.00,ENE,62,2.0,4.0,91,0.00,,,0.00,0.000000,,2013-04-13 09:46:00,
2013-04-12 23:53:00,57.0,54.0,-100.00,ENE,62,2.0,4.0,91,0.00,,,0.00,0.000000,,2013-04-13 09:53:00,